createdAt,value
2023-02-02T00:00:43.922Z,94.79
2023-02-02T00:05:53.583Z,94.94
2023-02-02T00:10:57.241Z,95.79
2023-02-02T00:16:20.525Z,96.74
2023-02-02T00:21:23.812Z,97.68
2023-02-02T00:26:26.910Z,98.11
2023-02-02T00:31:29.841Z,99.08
2023-02-02T00:36:32.947Z,99.62
2023-02-02T00:41:35.877Z,100.00
2023-02-02T00:46:41.234Z,100.00
2023-02-02T00:51:45.235Z,100.00
2023-02-02T00:56:48.408Z,100.00
2023-02-02T01:01:51.489Z,99.96
2023-02-02T01:06:54.410Z,99.92
2023-02-02T01:11:58.187Z,99.65
2023-02-02T01:17:01.001Z,99.72
2023-02-02T01:22:04.250Z,99.09
2023-02-02T01:27:07.558Z,99.44
2023-02-02T01:32:11.591Z,99.88
2023-02-02T01:37:14.408Z,99.75
2023-02-02T01:42:22.701Z,98.45
2023-02-02T01:47:31.302Z,97.90
2023-02-02T01:52:35.627Z,97.12
2023-02-02T01:57:45.433Z,96.62
2023-02-02T02:02:49.635Z,96.90
2023-02-02T02:08:08.339Z,96.54
2023-02-02T02:13:12.510Z,95.74
2023-02-02T02:18:44.271Z,95.74
2023-02-02T02:24:38.114Z,95.46
2023-02-02T02:30:05.307Z,95.84
2023-02-02T02:35:32.509Z,95.86
2023-02-02T02:40:47.878Z,95.46
2023-02-02T02:45:51.342Z,95.43
2023-02-02T02:50:54.265Z,95.48
2023-02-02T02:56:30.597Z,95.48
2023-02-02T03:02:22.794Z,95.15
2023-02-02T03:07:58.514Z,94.52
2023-02-02T03:13:06.409Z,93.97
2023-02-02T03:18:09.965Z,93.54
2023-02-02T03:23:14.222Z,92.95
2023-02-02T03:28:18.924Z,91.81
2023-02-02T03:33:22.734Z,91.42
2023-02-02T03:38:25.626Z,91.50
2023-02-02T03:43:28.864Z,91.47
2023-02-02T03:48:35.475Z,90.59
2023-02-02T03:53:40.506Z,89.89
2023-02-02T03:58:44.232Z,89.77
2023-02-02T04:03:47.054Z,89.69
2023-02-02T04:08:50.343Z,89.66
2023-02-02T04:13:53.241Z,90.06
2023-02-02T04:18:56.181Z,90.22
2023-02-02T04:23:59.390Z,90.55
2023-02-02T04:29:02.253Z,90.78
2023-02-02T04:34:05.255Z,91.19
2023-02-02T04:39:13.397Z,91.38
2023-02-02T04:44:17.034Z,91.43
2023-02-02T04:49:20.267Z,91.62
2023-02-02T04:54:23.067Z,91.83
2023-02-02T04:59:30.299Z,91.29
2023-02-02T05:04:33.225Z,91.05
2023-02-02T05:09:36.159Z,91.21
2023-02-02T05:14:39.412Z,91.07
2023-02-02T05:19:42.844Z,91.21
2023-02-02T05:24:46.704Z,91.35
2023-02-02T05:29:49.602Z,91.06
2023-02-02T05:34:52.551Z,90.56
2023-02-02T05:39:55.529Z,90.27
2023-02-02T05:44:58.568Z,90.26
2023-02-02T05:50:02.642Z,89.86
2023-02-02T05:55:06.442Z,89.60
2023-02-02T06:00:10.491Z,89.17
2023-02-02T06:05:13.622Z,89.06
2023-02-02T06:10:17.047Z,88.63
2023-02-02T06:15:20.230Z,89.04
2023-02-02T06:20:23.200Z,88.70
2023-02-02T06:25:26.598Z,88.62
2023-02-02T06:30:29.634Z,88.45
2023-02-02T06:35:32.720Z,88.18
2023-02-02T06:40:35.833Z,87.88
2023-02-02T06:45:40.534Z,87.83
2023-02-02T06:50:43.490Z,87.00
2023-02-02T06:55:54.726Z,86.84
2023-02-02T07:01:10.832Z,86.24
2023-02-02T07:06:26.815Z,86.13
2023-02-02T07:11:32.989Z,86.35
2023-02-02T07:16:37.926Z,84.96
2023-02-02T07:21:40.821Z,82.30
2023-02-02T07:26:43.625Z,80.56
2023-02-02T07:31:46.856Z,78.55
2023-02-02T07:36:50.077Z,74.69
2023-02-02T07:41:53.050Z,75.37
2023-02-02T07:46:56.062Z,76.60
2023-02-02T07:51:58.922Z,77.95
2023-02-02T07:57:02.333Z,78.40
2023-02-02T08:02:05.496Z,78.46
2023-02-02T08:07:08.697Z,78.56
2023-02-02T08:12:11.775Z,78.78
2023-02-02T08:17:15.004Z,78.66
2023-02-02T08:22:20.220Z,78.43
2023-02-02T08:27:23.235Z,78.07
2023-02-02T08:32:26.186Z,77.55
2023-02-02T08:37:29.043Z,77.20
2023-02-02T08:42:32.068Z,77.02
2023-02-02T08:47:35.015Z,76.68
2023-02-02T08:52:38.081Z,75.81
2023-02-02T08:57:41.044Z,74.75
2023-02-02T09:02:43.979Z,73.89
2023-02-02T09:07:49.255Z,73.60
2023-02-02T09:12:52.414Z,73.54
2023-02-02T09:17:55.822Z,73.29
2023-02-02T09:22:58.733Z,73.07
2023-02-02T09:28:01.708Z,72.37
2023-02-02T09:33:05.203Z,72.13
2023-02-02T09:38:08.508Z,71.27
2023-02-02T09:43:45.307Z,70.51
2023-02-02T09:49:05.818Z,68.90
2023-02-02T09:54:21.120Z,68.43
2023-02-02T09:59:35.747Z,68.06
2023-02-02T10:04:42.169Z,67.41
2023-02-02T10:10:00.339Z,66.24
2023-02-02T10:15:17.867Z,67.30
2023-02-02T10:20:44.796Z,67.40
2023-02-02T10:26:20.112Z,64.80
2023-02-02T10:32:25.102Z,63.34
2023-02-02T10:37:57.106Z,59.87
2023-02-02T10:43:54.547Z,59.69
2023-02-02T10:49:41.914Z,59.66
2023-02-02T10:54:59.128Z,61.60
2023-02-02T11:00:28.775Z,62.67
2023-02-02T11:05:50.874Z,63.42
2023-02-02T11:10:56.943Z,64.74
2023-02-02T11:16:44.457Z,65.11
2023-02-02T11:22:04.598Z,65.55
2023-02-02T11:27:27.833Z,65.51
2023-02-02T11:32:33.200Z,66.55
2023-02-02T11:37:40.326Z,67.11
2023-02-02T11:42:47.886Z,66.66
2023-02-02T11:47:51.911Z,66.59
2023-02-02T11:52:56.799Z,66.47
2023-02-02T11:58:30.142Z,65.92
2023-02-02T12:03:33.034Z,66.21
2023-02-02T12:08:36.145Z,65.56
2023-02-02T12:14:00.397Z,65.78
2023-02-02T12:19:32.859Z,65.44
2023-02-02T12:24:45.730Z,65.17
2023-02-02T12:30:00.245Z,65.84
2023-02-02T12:35:36.371Z,65.53
2023-02-02T12:41:00.991Z,65.54
2023-02-02T12:46:38.274Z,66.16
2023-02-02T12:52:12.373Z,65.80
2023-02-02T12:57:37.896Z,65.69
2023-02-02T13:03:09.616Z,66.57
2023-02-02T13:08:42.661Z,66.60
2023-02-02T13:13:45.688Z,67.22
2023-02-02T13:19:04.852Z,67.37
2023-02-02T13:24:18.341Z,67.48
2023-02-02T13:29:42.665Z,67.80
2023-02-02T13:34:59.845Z,68.03
2023-02-02T13:40:29.273Z,68.03
2023-02-02T13:46:25.258Z,68.63
2023-02-02T13:51:31.311Z,68.69
2023-02-02T13:56:51.663Z,69.28
2023-02-02T14:01:57.037Z,68.72
2023-02-02T14:12:11.388Z,68.50
2023-02-02T14:17:14.305Z,68.85
2023-02-02T14:22:37.919Z,68.75
2023-02-02T14:27:57.052Z,68.85
2023-02-02T14:33:21.922Z,69.13
2023-02-02T14:38:46.240Z,69.20
2023-02-02T14:43:52.336Z,69.49
2023-02-02T14:48:57.203Z,69.53
2023-02-02T14:54:06.391Z,69.42
2023-02-02T14:59:27.036Z,69.60
2023-02-02T15:04:30.272Z,69.52
2023-02-02T15:09:38.240Z,69.61
2023-02-02T15:15:16.622Z,69.95
2023-02-02T15:20:43.046Z,70.37
2023-02-02T15:26:19.805Z,70.89
2023-02-02T15:31:46.029Z,71.20
2023-02-02T15:36:53.830Z,71.56
2023-02-02T15:42:19.175Z,72.09
2023-02-02T15:47:31.470Z,72.71
2023-02-02T15:52:38.114Z,73.22
2023-02-02T15:57:45.566Z,73.73
2023-02-02T16:02:55.621Z,74.28
2023-02-02T16:08:06.656Z,74.59
2023-02-02T16:13:28.569Z,74.84
2023-02-02T16:18:31.505Z,75.14
2023-02-02T16:23:37.218Z,75.56
2023-02-02T16:28:41.000Z,75.43
2023-02-02T16:33:45.662Z,75.66
2023-02-02T16:38:52.272Z,76.08
2023-02-02T16:43:55.653Z,76.28
2023-02-02T16:49:02.006Z,76.39
2023-02-02T16:54:07.968Z,76.46
2023-02-02T16:59:23.018Z,76.98
2023-02-02T17:04:30.013Z,76.96
2023-02-02T17:09:36.495Z,77.16
2023-02-02T17:14:54.161Z,77.85
2023-02-02T17:19:57.267Z,78.19
2023-02-02T17:25:00.313Z,78.41
2023-02-02T17:30:05.634Z,78.95
2023-02-02T17:42:01.046Z,79.24
2023-02-02T17:47:13.201Z,79.33
2023-02-02T17:52:16.200Z,79.87
2023-02-02T17:57:19.141Z,80.53
2023-02-02T18:02:22.219Z,80.65
2023-02-02T18:07:25.967Z,80.64
2023-02-02T18:12:28.725Z,81.26
2023-02-02T18:17:33.976Z,81.63
2023-02-02T18:22:37.643Z,82.10
2023-02-02T18:27:40.812Z,82.20
2023-02-02T18:32:44.073Z,82.53
2023-02-02T18:37:47.280Z,82.58
2023-02-02T18:42:50.505Z,82.97
2023-02-02T18:47:53.236Z,82.51
2023-02-02T18:52:56.968Z,82.70
2023-02-02T18:57:59.971Z,82.84
2023-02-02T19:03:02.873Z,83.48
2023-02-02T19:08:05.962Z,83.55
2023-02-02T19:13:20.396Z,83.50
2023-02-02T19:18:24.615Z,83.53
2023-02-02T19:23:32.371Z,83.99
2023-02-02T19:28:35.292Z,83.78
2023-02-02T19:33:45.636Z,83.53
2023-02-02T19:38:55.526Z,83.80
2023-02-02T19:44:19.284Z,84.28
2023-02-02T19:49:36.416Z,84.55
2023-02-02T19:54:48.007Z,84.82
2023-02-02T19:59:52.702Z,85.14
2023-02-02T20:05:22.108Z,85.96
2023-02-02T20:10:44.590Z,86.31
2023-02-02T20:15:51.171Z,86.25
2023-02-02T20:20:57.145Z,86.74
2023-02-02T20:26:07.434Z,86.65
2023-02-02T20:31:17.309Z,87.31
2023-02-02T20:36:40.977Z,87.64
2023-02-02T20:41:44.048Z,87.87
2023-02-02T20:46:47.194Z,87.51
2023-02-02T20:51:50.174Z,87.95
2023-02-02T20:56:54.474Z,88.05
2023-02-02T21:01:59.046Z,88.17
2023-02-02T21:07:02.105Z,88.01
2023-02-02T21:12:05.235Z,88.35
2023-02-02T21:17:15.216Z,88.66
2023-02-02T21:22:19.188Z,88.87
2023-02-02T21:27:22.193Z,88.91
2023-02-02T21:32:25.301Z,88.84
2023-02-02T21:37:29.245Z,88.38
2023-02-02T21:42:35.517Z,88.41
2023-02-02T21:48:02.671Z,88.37
2023-02-02T21:53:23.135Z,88.45
2023-02-02T21:58:40.226Z,88.31
2023-02-02T22:03:46.797Z,88.75
2023-02-02T22:08:51.192Z,88.85
2023-02-02T22:13:55.777Z,89.18
2023-02-02T22:19:01.146Z,89.09
2023-02-02T22:24:04.521Z,89.44
2023-02-02T22:29:18.669Z,89.53
2023-02-02T22:34:21.623Z,89.35
2023-02-02T22:39:24.520Z,89.03
2023-02-02T22:44:27.676Z,88.93
2023-02-02T22:49:30.362Z,88.61
2023-02-02T22:54:33.482Z,88.86
2023-02-02T22:59:36.483Z,88.90
2023-02-02T23:04:39.495Z,89.12
2023-02-02T23:09:42.363Z,88.46
2023-02-02T23:14:45.375Z,88.58
2023-02-02T23:19:48.370Z,88.60
2023-02-02T23:24:51.294Z,88.93
2023-02-02T23:29:54.831Z,88.62
2023-02-02T23:34:57.814Z,88.19
2023-02-02T23:40:01.301Z,87.12
2023-02-02T23:45:04.826Z,87.04
2023-02-02T23:50:09.447Z,87.38
2023-02-02T23:55:12.568Z,86.72
